Time;durP1;ratioP1;P1;durP2;ratioP2;P2;SDS_P1;SDS_P2;PMS_P1;PMS_P2;Temp;Humidity;BMP_temperature;BMP_pressure;BME280_temperature;BME280_humidity;BME280_pressure;Samples;Min_cycle;Max_cycle;Signal;HPM_P1;HPM_P2
2021/10/25 00:00:26;;;;;;;7.82;6.97;;;;;;;;;;5033100;28;20220;-80
2021/10/25 00:02:53;;;;;;;9.43;6.57;;;;;;;;;;5032641;28;20196;-81
2021/10/25 00:05:20;;;;;;;7.65;6.03;;;;;;;;;;5033163;28;20253;-79
2021/10/25 00:07:46;;;;;;;8.07;6.28;;;;;;;;;;5031812;28;20232;-81
2021/10/25 00:10:12;;;;;;;8.55;6.45;;;;;;;;;;5031794;28;20577;-80
2021/10/25 00:12:40;;;;;;;7.45;6.55;;;;;;;;;;5015105;28;20220;-79
2021/10/25 00:15:06;;;;;;;6.78;5.97;;;;;;;;;;5033209;28;20193;-80
2021/10/25 00:17:32;;;;;;;8.48;5.82;;;;;;;;;;5032996;28;20594;-80
2021/10/25 00:19:58;;;;;;;7.47;6.50;;;;;;;;;;5032932;28;20217;-80
2021/10/25 00:22:24;;;;;;;8.70;6.20;;;;;;;;;;5014999;28;20478;-81
2021/10/25 00:24:50;;;;;;;13.10;6.18;;;;;;;;;;5032990;28;20173;-78
2021/10/25 00:27:16;;;;;;;7.87;5.27;;;;;;;;;;5032981;28;20266;-78
2021/10/25 00:29:43;;;;;;;6.63;5.60;;;;;;;;;;5032898;28;20428;-78
2021/10/25 00:32:09;;;;;;;7.18;5.75;;;;;;;;;;5032503;28;20211;-79
2021/10/25 00:34:35;;;;;;;8.65;5.90;;;;;;;;;;5032764;28;20261;-78
2021/10/25 00:37:03;;;;;;;8.75;6.57;;;;;;;;;;5032777;28;20690;-79
2021/10/25 00:39:31;;;;;;;6.88;5.50;;;;;;;;;;5032836;28;20613;-80
2021/10/25 00:41:57;;;;;;;7.43;5.55;;;;;;;;;;5032493;28;20214;-79
2021/10/25 00:44:24;;;;;;;12.65;6.40;;;;;;;;;;5032800;28;20193;-79
2021/10/25 00:46:50;;;;;;;10.15;6.90;;;;;;;;;;5031452;28;20174;-81
2021/10/25 00:49:16;;;;;;;8.07;6.32;;;;;;;;;;5031478;28;20198;-81
2021/10/25 00:51:43;;;;;;;7.68;5.43;;;;;;;;;;5032177;28;20693;-80
2021/10/25 00:54:09;;;;;;;7.88;5.43;;;;;;;;;;5015413;28;20232;-78
2021/10/25 00:56:38;;;;;;;10.63;5.85;;;;;;;;;;5031386;28;20190;-80
2021/10/25 00:59:04;;;;;;;10.63;5.95;;;;;;;;;;5033116;28;20171;-78
2021/10/25 01:01:30;;;;;;;7.05;5.80;;;;;;;;;;5036406;28;20606;-80
2021/10/25 01:03:56;;;;;;;7.30;6.03;;;;;;;;;;5035150;28;20236;-77
2021/10/25 01:06:22;;;;;;;7.10;5.45;;;;;;;;;;5036492;28;20409;-80
2021/10/25 01:08:49;;;;;;;8.00;5.82;;;;;;;;;;5035232;28;20212;-79
2021/10/25 01:11:15;;;;;;;6.82;6.13;;;;;;;;;;5018298;28;20186;-78
2021/10/25 01:13:41;;;;;;;7.35;5.88;;;;;;;;;;5036318;28;20206;-80
2021/10/25 01:16:08;;;;;;;7.00;6.30;;;;;;;;;;5036227;28;20236;-81
2021/10/25 01:18:34;;;;;;;9.02;5.60;;;;;;;;;;5036022;28;20178;-81
2021/10/25 01:21:01;;;;;;;7.28;5.10;;;;;;;;;;5034414;28;20185;-81
2021/10/25 01:23:27;;;;;;;11.63;5.68;;;;;;;;;;5034781;28;20194;-81
2021/10/25 01:25:54;;;;;;;5.97;5.28;;;;;;;;;;5035971;28;20182;-80
2021/10/25 01:28:20;;;;;;;8.35;5.50;;;;;;;;;;5034561;28;20213;-81
2021/10/25 01:30:46;;;;;;;7.47;5.03;;;;;;;;;;5034423;28;20220;-79
2021/10/25 01:33:16;;;;;;;7.57;5.75;;;;;;;;;;5035179;28;20224;-78
2021/10/25 01:35:43;;;;;;;8.93;6.00;;;;;;;;;;5035867;28;20201;-77
2021/10/25 01:38:10;;;;;;;9.75;6.70;;;;;;;;;;5034502;28;20589;-79
2021/10/25 01:40:36;;;;;;;7.97;5.18;;;;;;;;;;5035621;28;20166;-80
2021/10/25 01:43:02;;;;;;;8.15;5.25;;;;;;;;;;5033911;28;20208;-79
2021/10/25 01:45:28;;;;;;;6.05;5.45;;;;;;;;;;5035394;28;20719;-76
2021/10/25 01:47:55;;;;;;;9.75;5.43;;;;;;;;;;5035626;28;20182;-80
2021/10/25 01:50:21;;;;;;;7.80;5.63;;;;;;;;;;5035720;28;20174;-77
2021/10/25 01:52:47;;;;;;;6.80;5.20;;;;;;;;;;5035146;28;20217;-80
2021/10/25 01:55:14;;;;;;;7.35;5.70;;;;;;;;;;5035375;28;20217;-81
2021/10/25 01:57:40;;;;;;;8.90;5.30;;;;;;;;;;5034125;28;20174;-77
2021/10/25 02:00:07;;;;;;;8.88;5.75;;;;;;;;;;5034268;28;20247;-80
2021/10/25 02:02:33;;;;;;;5.88;4.72;;;;;;;;;;5035016;28;20205;-79
2021/10/25 02:05:01;;;;;;;9.18;5.68;;;;;;;;;;5035260;28;20178;-79
2021/10/25 02:07:28;;;;;;;7.93;4.80;;;;;;;;;;5035087;28;20185;-81
2021/10/25 02:09:54;;;;;;;6.15;5.07;;;;;;;;;;5035348;28;20193;-81
2021/10/25 02:12:20;;;;;;;8.52;5.38;;;;;;;;;;5032054;28;20255;-81
2021/10/25 02:14:46;;;;;;;5.25;4.75;;;;;;;;;;5034009;28;20650;-79
2021/10/25 02:17:13;;;;;;;6.97;5.55;;;;;;;;;;5035158;28;20269;-78
2021/10/25 02:19:39;;;;;;;6.88;5.00;;;;;;;;;;5034810;28;20177;-79
2021/10/25 02:22:05;;;;;;;8.70;4.75;;;;;;;;;;5034416;28;20198;-77
2021/10/25 02:24:33;;;;;;;12.57;5.55;;;;;;;;;;5034933;28;20190;-82
2021/10/25 02:26:59;;;;;;;7.07;5.25;;;;;;;;;;5034932;28;20185;-77
2021/10/25 02:29:25;;;;;;;5.75;5.00;;;;;;;;;;5033905;28;20181;-77
2021/10/25 02:31:51;;;;;;;6.63;5.28;;;;;;;;;;5032983;28;20210;-81
2021/10/25 02:34:17;;;;;;;7.55;4.75;;;;;;;;;;5034604;28;20177;-78
2021/10/25 02:36:44;;;;;;;9.65;5.43;;;;;;;;;;5034594;28;20642;-80
2021/10/25 02:39:10;;;;;;;8.00;5.85;;;;;;;;;;5034410;28;20281;-79
2021/10/25 02:41:37;;;;;;;8.18;5.63;;;;;;;;;;5034028;28;20670;-80
2021/10/25 02:44:03;;;;;;;6.15;5.55;;;;;;;;;;5034458;28;20678;-80
2021/10/25 02:46:29;;;;;;;5.85;4.90;;;;;;;;;;5034351;28;20178;-79
2021/10/25 02:48:56;;;;;;;8.43;5.00;;;;;;;;;;5034405;28;20519;-80
2021/10/25 02:51:22;;;;;;;6.88;5.30;;;;;;;;;;5034038;28;20182;-81
2021/10/25 02:53:48;;;;;;;7.47;4.90;;;;;;;;;;5033047;28;20297;-78
2021/10/25 02:56:14;;;;;;;7.15;4.32;;;;;;;;;;5034097;28;20543;-80
2021/10/25 02:58:40;;;;;;;8.13;5.03;;;;;;;;;;5032887;28;20186;-77
2021/10/25 03:01:08;;;;;;;5.47;4.93;;;;;;;;;;5033954;28;20185;-80
2021/10/25 03:03:34;;;;;;;5.60;4.97;;;;;;;;;;5032932;28;20424;-80
2021/10/25 03:06:00;;;;;;;9.73;6.30;;;;;;;;;;5034185;28;20588;-79
2021/10/25 03:08:26;;;;;;;9.27;5.95;;;;;;;;;;5034257;28;20421;-79
2021/10/25 03:10:52;;;;;;;6.82;5.68;;;;;;;;;;5032660;28;20182;-77
2021/10/25 03:13:21;;;;;;;7.47;5.25;;;;;;;;;;5032318;28;20615;-79
2021/10/25 03:15:47;;;;;;;6.15;4.72;;;;;;;;;;5033923;28;20713;-79
2021/10/25 03:18:14;;;;;;;6.75;4.38;;;;;;;;;;5033584;28;20196;-80
2021/10/25 03:20:40;;;;;;;7.70;5.00;;;;;;;;;;5033913;28;20185;-79
2021/10/25 03:23:06;;;;;;;6.75;5.25;;;;;;;;;;5032934;28;20225;-79
2021/10/25 03:25:32;;;;;;;6.80;5.20;;;;;;;;;;5033632;28;20202;-76
2021/10/25 03:27:58;;;;;;;6.28;5.35;;;;;;;;;;5033725;28;20421;-80
2021/10/25 03:30:24;;;;;;;7.10;5.70;;;;;;;;;;5032259;28;20183;-78
2021/10/25 03:32:50;;;;;;;9.70;5.38;;;;;;;;;;5033116;28;20465;-79
2021/10/25 03:35:16;;;;;;;9.90;5.60;;;;;;;;;;5033667;28;20189;-78
2021/10/25 03:37:42;;;;;;;9.45;6.88;;;;;;;;;;5032282;28;20180;-78
2021/10/25 03:40:09;;;;;;;7.20;5.90;;;;;;;;;;5033299;28;20257;-77
2021/10/25 03:42:54;;;;;;;14.68;6.45;;;;;;;;;;5031713;28;20299;-77
2021/10/25 03:45:27;;;;;;;7.40;6.28;;;;;;;;;;5032690;28;20249;-79
2021/10/25 03:47:59;;;;;;;11.50;5.75;;;;;;;;;;5033369;28;20189;-78
2021/10/25 03:50:30;;;;;;;8.85;5.40;;;;;;;;;;5033113;28;20274;-79
2021/10/25 03:58:32;;;;;;;7.13;6.05;;;;;;;;;;5033409;28;20639;-78
2021/10/25 04:28:01;;;;;;;6.95;6.25;;;;;;;;;;5033204;28;20186;-78
2021/10/25 04:30:31;;;;;;;9.05;5.60;;;;;;;;;;5032941;28;20158;-78
2021/10/25 04:32:57;;;;;;;7.00;5.82;;;;;;;;;;5030999;28;20291;-79
2021/10/25 04:35:23;;;;;;;10.63;7.40;;;;;;;;;;5035470;28;20706;-79
2021/10/25 04:37:49;;;;;;;11.88;6.10;;;;;;;;;;5035631;28;20189;-79
2021/10/25 04:40:15;;;;;;;7.28;6.57;;;;;;;;;;5036836;28;20571;-78
2021/10/25 04:42:41;;;;;;;13.60;7.07;;;;;;;;;;5036324;28;20198;-78
2021/10/25 04:45:08;;;;;;;8.02;6.50;;;;;;;;;;5035421;28;20236;-80
2021/10/25 04:47:34;;;;;;;11.80;7.43;;;;;;;;;;5036613;28;20516;-77
2021/10/25 04:50:00;;;;;;;8.68;6.85;;;;;;;;;;5035508;28;20188;-80
2021/10/25 04:52:27;;;;;;;10.25;6.55;;;;;;;;;;5035062;28;20305;-80
2021/10/25 04:54:53;;;;;;;8.80;5.45;;;;;;;;;;5036536;28;20194;-78
2021/10/25 04:57:20;;;;;;;9.43;5.85;;;;;;;;;;5036490;28;20698;-80
2021/10/25 04:59:46;;;;;;;10.43;5.85;;;;;;;;;;5036562;28;20170;-80
2021/10/25 05:02:13;;;;;;;10.48;5.90;;;;;;;;;;5036247;28;20288;-78
2021/10/25 05:04:39;;;;;;;8.45;6.40;;;;;;;;;;5036414;28;20541;-80
2021/10/25 05:07:05;;;;;;;10.68;5.85;;;;;;;;;;5036237;28;20180;-78
2021/10/25 05:09:31;;;;;;;8.88;6.65;;;;;;;;;;5034959;28;20185;-77
2021/10/25 05:11:57;;;;;;;7.40;6.45;;;;;;;;;;5035828;28;20190;-79
2021/10/25 05:14:23;;;;;;;7.75;6.28;;;;;;;;;;5036485;28;20186;-80
2021/10/25 05:16:49;;;;;;;9.35;6.75;;;;;;;;;;5035020;28;20181;-80
2021/10/25 05:19:15;;;;;;;7.03;6.05;;;;;;;;;;5036132;28;20305;-80
2021/10/25 05:21:41;;;;;;;11.43;6.90;;;;;;;;;;5035645;28;20263;-81
2021/10/25 05:24:07;;;;;;;10.07;6.10;;;;;;;;;;5035718;28;20651;-78
2021/10/25 05:26:34;;;;;;;8.57;7.18;;;;;;;;;;5018332;28;20428;-81
2021/10/25 05:29:00;;;;;;;7.53;6.72;;;;;;;;;;5035827;28;20545;-80
2021/10/25 05:31:26;;;;;;;9.57;7.43;;;;;;;;;;5034218;28;20198;-78
2021/10/25 05:33:53;;;;;;;9.57;6.63;;;;;;;;;;5018174;28;20221;-81
2021/10/25 05:36:19;;;;;;;10.27;6.47;;;;;;;;;;5035842;28;20170;-79
2021/10/25 05:38:45;;;;;;;9.65;7.10;;;;;;;;;;5034400;28;20182;-78
2021/10/25 05:41:13;;;;;;;7.47;6.40;;;;;;;;;;5033826;28;20278;-78
2021/10/25 05:43:39;;;;;;;8.02;7.05;;;;;;;;;;5035734;28;20170;-78
2021/10/25 05:46:06;;;;;;;10.00;7.13;;;;;;;;;;5035322;28;20180;-77
2021/10/25 05:48:32;;;;;;;11.70;7.75;;;;;;;;;;5035540;28;20189;-78
2021/10/25 05:51:00;;;;;;;11.25;7.50;;;;;;;;;;5035160;28;20189;-81
2021/10/25 05:53:29;;;;;;;10.02;7.55;;;;;;;;;;5035170;28;20197;-77
2021/10/25 05:55:56;;;;;;;12.90;7.85;;;;;;;;;;5034182;28;20224;-79
2021/10/25 05:58:23;;;;;;;11.98;7.32;;;;;;;;;;5035273;28;20170;-80
2021/10/25 06:00:53;;;;;;;9.18;6.40;;;;;;;;;;5035449;28;20173;-81
2021/10/25 06:03:23;;;;;;;10.48;7.40;;;;;;;;;;5035176;28;20248;-81
2021/10/25 06:05:48;;;;;;;10.48;7.32;;;;;;;;;;5034224;28;20542;-79
2021/10/25 06:08:15;;;;;;;8.27;7.00;;;;;;;;;;5035287;28;20178;-79
2021/10/25 06:10:42;;;;;;;10.48;6.70;;;;;;;;;;5035214;28;20189;-81
2021/10/25 06:13:10;;;;;;;7.65;6.68;;;;;;;;;;5033514;28;20211;-81
2021/10/25 06:15:41;;;;;;;8.65;6.90;;;;;;;;;;5034969;28;20174;-79
2021/10/25 06:18:08;;;;;;;11.20;7.30;;;;;;;;;;5034891;28;20187;-81
2021/10/25 06:20:35;;;;;;;11.05;6.88;;;;;;;;;;5033917;28;20261;-79
2021/10/25 06:23:06;;;;;;;8.13;6.93;;;;;;;;;;5033311;28;20207;-76
2021/10/25 06:25:32;;;;;;;9.13;6.72;;;;;;;;;;5034434;28;20174;-77
2021/10/25 06:27:58;;;;;;;15.05;7.63;;;;;;;;;;5034759;28;20185;-78
2021/10/25 06:30:24;;;;;;;11.10;6.63;;;;;;;;;;5034841;28;20171;-80
2021/10/25 06:32:51;;;;;;;10.48;6.72;;;;;;;;;;5034308;28;20237;-80
2021/10/25 06:35:23;;;;;;;10.45;7.07;;;;;;;;;;5017206;28;20285;-81
2021/10/25 06:40:21;;;;;;;8.20;6.30;;;;;;;;;;5033601;28;20181;-78
2021/10/25 06:42:48;;;;;;;13.60;6.95;;;;;;;;;;5032746;28;20194;-79
2021/10/25 06:45:17;;;;;;;11.90;7.22;;;;;;;;;;5033362;28;20193;-80
2021/10/25 06:47:43;;;;;;;14.65;8.45;;;;;;;;;;5034252;28;20178;-81
2021/10/25 06:50:10;;;;;;;11.43;7.57;;;;;;;;;;5034363;28;20205;-79
2021/10/25 06:52:36;;;;;;;13.65;7.50;;;;;;;;;;5033991;28;20211;-77
2021/10/25 06:55:04;;;;;;;13.40;8.95;;;;;;;;;;5034400;28;20170;-80
2021/10/25 06:57:30;;;;;;;13.73;8.98;;;;;;;;;;5033459;28;20602;-77
2021/10/25 06:59:56;;;;;;;13.80;7.50;;;;;;;;;;5032938;28;20554;-79
2021/10/25 07:02:22;;;;;;;15.60;9.00;;;;;;;;;;5033854;28;20256;-77
2021/10/25 07:04:48;;;;;;;12.32;8.02;;;;;;;;;;5032927;28;20186;-77
2021/10/25 07:07:16;;;;;;;11.90;8.50;;;;;;;;;;5034782;28;20186;-81
2021/10/25 07:09:43;;;;;;;13.75;8.27;;;;;;;;;;5033767;28;20313;-78
2021/10/25 07:12:09;;;;;;;15.90;9.02;;;;;;;;;;5033353;28;20352;-79
2021/10/25 07:14:38;;;;;;;10.70;8.40;;;;;;;;;;5033002;28;20178;-77
2021/10/25 07:20:10;;;;;;;14.10;9.10;;;;;;;;;;5034234;28;20187;-80
2021/10/25 07:28:07;;;;;;;10.52;7.85;;;;;;;;;;5033902;28;20193;-81
2021/10/25 08:01:15;;;;;;;10.77;8.50;;;;;;;;;;5033460;28;20547;-77
2021/10/25 08:04:03;;;;;;;11.10;8.20;;;;;;;;;;5032926;28;20190;-79
2021/10/25 08:11:31;;;;;;;9.50;6.15;;;;;;;;;;5032836;28;20189;-77
2021/10/25 08:14:03;;;;;;;8.35;6.95;;;;;;;;;;5031834;28;20586;-80
2021/10/25 08:19:23;;;;;;;10.15;6.82;;;;;;;;;;5033073;28;20200;-76
2021/10/25 08:21:50;;;;;;;9.27;6.80;;;;;;;;;;5032620;28;20201;-76
2021/10/25 08:24:16;;;;;;;7.90;6.03;;;;;;;;;;5031658;28;20213;-76
2021/10/25 08:26:42;;;;;;;10.82;5.93;;;;;;;;;;5032836;28;20642;-78
2021/10/25 08:29:08;;;;;;;6.72;5.00;;;;;;;;;;5033062;28;20559;-78
2021/10/25 08:31:37;;;;;;;10.98;5.60;;;;;;;;;;5032732;28;20194;-78
2021/10/25 08:39:58;;;;;;;6.68;4.72;;;;;;;;;;5033164;28;20221;-77
2021/10/25 08:42:29;;;;;;;7.25;5.40;;;;;;;;;;5031067;28;20198;-80
2021/10/25 08:44:58;;;;;;;6.53;4.93;;;;;;;;;;5031558;28;20291;-80
2021/10/25 08:47:27;;;;;;;5.55;4.38;;;;;;;;;;5031505;28;20182;-78
2021/10/25 08:49:55;;;;;;;6.07;4.00;;;;;;;;;;5032635;28;20174;-79
2021/10/25 08:52:22;;;;;;;5.18;3.92;;;;;;;;;;5032166;28;20293;-79
2021/10/25 08:54:52;;;;;;;5.20;4.60;;;;;;;;;;5031242;28;20174;-79
2021/10/25 08:57:22;;;;;;;6.30;4.13;;;;;;;;;;5032568;28;20179;-78
2021/10/25 08:59:59;;;;;;;5.78;4.63;;;;;;;;;;5031314;28;20183;-77
2021/10/25 09:02:27;;;;;;;4.45;4.00;;;;;;;;;;5032322;28;20228;-78
2021/10/25 09:05:00;;;;;;;6.68;4.10;;;;;;;;;;5032496;28;20665;-78
2021/10/25 09:07:26;;;;;;;4.55;3.90;;;;;;;;;;5032457;28;20627;-78
2021/10/25 09:09:52;;;;;;;4.93;3.85;;;;;;;;;;5032443;28;20224;-78
2021/10/25 09:12:18;;;;;;;6.37;4.33;;;;;;;;;;5030895;28;20742;-78
2021/10/25 09:14:45;;;;;;;4.33;3.60;;;;;;;;;;5031151;28;20498;-79
2021/10/25 09:17:11;;;;;;;5.80;3.33;;;;;;;;;;5032163;28;20436;-78
2021/10/25 09:19:41;;;;;;;4.20;3.00;;;;;;;;;;5032337;28;20433;-76
2021/10/25 09:22:11;;;;;;;3.27;2.90;;;;;;;;;;5035400;28;20411;-79
2021/10/25 09:24:37;;;;;;;3.20;2.50;;;;;;;;;;5035932;28;20405;-80
2021/10/25 09:27:06;;;;;;;3.03;2.73;;;;;;;;;;5036028;28;20390;-79
2021/10/25 09:29:34;;;;;;;4.57;3.13;;;;;;;;;;5035988;28;20472;-78
2021/10/25 09:32:07;;;;;;;4.60;3.10;;;;;;;;;;5035442;28;20433;-82
2021/10/25 09:34:37;;;;;;;4.40;2.90;;;;;;;;;;5035861;28;20397;-80
2021/10/25 09:37:06;;;;;;;2.90;2.63;;;;;;;;;;5034604;28;20385;-78
2021/10/25 09:39:44;;;;;;;3.33;2.97;;;;;;;;;;5035711;28;20440;-78
2021/10/25 09:50:42;;;;;;;5.00;2.40;;;;;;;;;;5035900;28;20387;-79
2021/10/25 09:53:09;;;;;;;2.70;2.17;;;;;;;;;;5035131;28;20435;-78
2021/10/25 09:55:42;;;;;;;4.07;2.70;;;;;;;;;;5035455;28;20434;-76
2021/10/25 09:58:23;;;;;;;5.40;2.43;;;;;;;;;;5035479;28;20750;-77
2021/10/25 10:00:49;;;;;;;3.50;2.70;;;;;;;;;;5035399;28;20405;-75
2021/10/25 10:03:15;;;;;;;3.17;2.27;;;;;;;;;;5034935;28;20404;-74
2021/10/25 10:05:43;;;;;;;5.00;2.73;;;;;;;;;;5035184;28;20405;-79
2021/10/25 10:08:09;;;;;;;4.60;2.33;;;;;;;;;;5034195;28;20880;-82
2021/10/25 10:10:36;;;;;;;3.83;2.73;;;;;;;;;;5035514;28;20400;-77
2021/10/25 10:13:03;;;;;;;4.13;2.40;;;;;;;;;;5034788;28;20522;-77
2021/10/25 10:15:31;;;;;;;2.77;2.30;;;;;;;;;;5035244;28;20838;-79
2021/10/25 10:18:00;;;;;;;3.20;2.60;;;;;;;;;;5035001;28;20464;-78
2021/10/25 10:20:34;;;;;;;5.10;2.60;;;;;;;;;;5035098;28;20396;-76
2021/10/25 10:23:04;;;;;;;3.87;2.43;;;;;;;;;;5033441;28;20452;-80
2021/10/25 10:25:31;;;;;;;3.83;2.30;;;;;;;;;;5034818;28;20388;-76
2021/10/25 10:28:14;;;;;;;3.30;2.90;;;;;;;;;;5034805;28;20413;-79
2021/10/25 10:30:52;;;;;;;3.20;2.53;;;;;;;;;;5034791;28;20412;-79
2021/10/25 10:33:18;;;;;;;4.40;1.87;;;;;;;;;;5033253;28;20554;-78
2021/10/25 10:35:48;;;;;;;5.20;2.70;;;;;;;;;;5034750;28;20408;-80
2021/10/25 10:38:15;;;;;;;2.33;2.13;;;;;;;;;;5034821;28;20405;-78
2021/10/25 10:40:42;;;;;;;3.77;2.60;;;;;;;;;;5034698;28;20499;-78
2021/10/25 10:43:21;;;;;;;2.53;2.00;;;;;;;;;;5034259;28;20479;-75
2021/10/25 10:45:56;;;;;;;3.63;2.47;;;;;;;;;;5033393;28;20457;-78
2021/10/25 10:48:28;;;;;;;3.37;2.43;;;;;;;;;;5034690;28;20416;-78
2021/10/25 10:51:01;;;;;;;5.37;2.20;;;;;;;;;;5034233;28;20774;-77
2021/10/25 10:53:51;;;;;;;3.90;2.10;;;;;;;;;;5034123;28;20835;-79
2021/10/25 10:56:28;;;;;;;2.13;1.93;;;;;;;;;;5033184;28;20413;-75
2021/10/25 10:59:17;;;;;;;2.43;2.07;;;;;;;;;;5034272;28;20454;-76
2021/10/25 11:01:40;;;;;;;8.70;2.90;;;;;;;;;;5033561;28;20484;-76
2021/10/25 11:04:08;;;;;;;4.57;2.57;;;;;;;;;;5034074;28;20817;-79
2021/10/25 11:06:35;;;;;;;4.60;2.53;;;;;;;;;;5033164;28;20425;-78
2021/10/25 11:09:12;;;;;;;3.17;2.07;;;;;;;;;;5033013;28;20785;-81
2021/10/25 11:11:39;;;;;;;4.40;2.83;;;;;;;;;;5033658;28;20960;-76
2021/10/25 11:14:12;;;;;;;3.37;1.90;;;;;;;;;;5033841;28;20547;-79
2021/10/25 11:16:56;;;;;;;3.90;2.50;;;;;;;;;;5034127;28;20409;-77
2021/10/25 11:19:22;;;;;;;2.40;2.20;;;;;;;;;;5033834;28;20437;-78
2021/10/25 11:21:52;;;;;;;3.63;2.23;;;;;;;;;;5033383;28;20429;-77
2021/10/25 11:24:20;;;;;;;2.57;2.37;;;;;;;;;;5034224;28;20409;-77
2021/10/25 11:26:50;;;;;;;3.03;1.80;;;;;;;;;;5032807;28;20413;-77
2021/10/25 11:29:24;;;;;;;7.00;2.43;;;;;;;;;;5033850;28;20412;-77
2021/10/25 11:31:52;;;;;;;5.80;2.83;;;;;;;;;;5033300;28;20413;-76
2021/10/25 11:34:23;;;;;;;3.20;2.30;;;;;;;;;;5033662;28;20953;-77
2021/10/25 11:37:01;;;;;;;2.87;2.40;;;;;;;;;;5033810;28;20500;-78
2021/10/25 11:39:28;;;;;;;4.23;2.20;;;;;;;;;;5033720;28;20404;-80
2021/10/25 11:41:55;;;;;;;2.77;2.20;;;;;;;;;;5031736;28;20407;-79
2021/10/25 11:44:21;;;;;;;4.97;2.37;;;;;;;;;;5031862;28;20388;-76
2021/10/25 11:46:46;;;;;;;3.50;2.17;;;;;;;;;;5033842;28;20388;-79
2021/10/25 11:49:20;;;;;;;3.27;2.50;;;;;;;;;;5033444;28;20417;-77
2021/10/25 11:51:49;;;;;;;2.30;1.90;;;;;;;;;;5033094;28;20747;-79
2021/10/25 11:54:16;;;;;;;2.90;2.00;;;;;;;;;;5033687;28;20453;-79
2021/10/25 11:56:49;;;;;;;4.97;2.50;;;;;;;;;;5032839;28;20384;-77
2021/10/25 11:59:16;;;;;;;3.73;2.23;;;;;;;;;;5033366;28;20430;-79
2021/10/25 12:01:43;;;;;;;6.20;2.47;;;;;;;;;;5033024;28;20431;-78
2021/10/25 12:04:09;;;;;;;5.87;1.73;;;;;;;;;;5033211;28;20413;-76
2021/10/25 12:06:36;;;;;;;2.70;2.00;;;;;;;;;;5033186;28;20884;-80
2021/10/25 12:09:06;;;;;;;2.93;2.37;;;;;;;;;;5033651;28;20792;-77
2021/10/25 12:12:03;;;;;;;6.27;2.97;;;;;;;;;;5033193;28;20878;-80
2021/10/25 12:14:32;;;;;;;3.27;1.97;;;;;;;;;;5032791;28;20480;-78
2021/10/25 12:16:58;;;;;;;5.70;2.23;;;;;;;;;;5033317;28;20378;-79
2021/10/25 12:19:25;;;;;;;2.83;1.73;;;;;;;;;;5033451;28;20428;-77
2021/10/25 12:21:52;;;;;;;2.30;1.77;;;;;;;;;;5033201;28;20403;-80
2021/10/25 12:24:22;;;;;;;4.30;2.10;;;;;;;;;;5032052;28;20383;-79
2021/10/25 12:27:01;;;;;;;4.17;2.30;;;;;;;;;;5033304;28;20409;-79
2021/10/25 12:29:27;;;;;;;3.07;2.87;;;;;;;;;;5033030;28;20416;-77
2021/10/25 12:31:55;;;;;;;3.07;2.13;;;;;;;;;;5032849;28;20427;-78
2021/10/25 12:34:21;;;;;;;4.80;2.60;;;;;;;;;;5033051;28;20460;-80
2021/10/25 12:36:47;;;;;;;2.00;1.80;;;;;;;;;;5033098;28;20408;-79
2021/10/25 12:39:18;;;;;;;7.03;2.90;;;;;;;;;;5031851;28;20405;-76
2021/10/25 12:41:52;;;;;;;5.23;2.50;;;;;;;;;;5032691;28;20519;-77
2021/10/25 12:44:23;;;;;;;4.63;2.50;;;;;;;;;;5032928;28;20479;-80
2021/10/25 12:46:51;;;;;;;2.70;2.03;;;;;;;;;;5033125;28;20413;-76
2021/10/25 12:49:20;;;;;;;3.63;1.87;;;;;;;;;;5032805;28;20445;-78
2021/10/25 12:51:46;;;;;;;3.20;1.80;;;;;;;;;;5032527;28;20533;-77
2021/10/25 12:54:13;;;;;;;3.17;1.67;;;;;;;;;;5033020;28;20555;-76
2021/10/25 12:56:40;;;;;;;5.03;2.20;;;;;;;;;;5036551;28;20409;-76
2021/10/25 12:59:06;;;;;;;4.10;2.00;;;;;;;;;;5035687;28;20387;-78
2021/10/25 13:01:32;;;;;;;3.30;2.53;;;;;;;;;;5036156;28;20437;-76
2021/10/25 13:03:59;;;;;;;3.63;2.07;;;;;;;;;;5036551;28;20412;-77
2021/10/25 13:06:32;;;;;;;3.40;2.03;;;;;;;;;;5035185;28;20492;-80
2021/10/25 13:09:04;;;;;;;3.10;2.00;;;;;;;;;;5036328;28;20894;-78
2021/10/25 13:11:30;;;;;;;7.00;2.30;;;;;;;;;;5036015;28;20431;-80
2021/10/25 13:13:58;;;;;;;4.33;2.10;;;;;;;;;;5036136;28;20488;-78
2021/10/25 13:16:28;;;;;;;3.27;2.03;;;;;;;;;;5036332;28;20775;-77
2021/10/25 13:18:54;;;;;;;3.20;1.80;;;;;;;;;;5034928;28;20952;-77
2021/10/25 13:21:20;;;;;;;2.53;2.07;;;;;;;;;;5035926;28;20408;-78
2021/10/25 13:23:46;;;;;;;3.27;2.10;;;;;;;;;;5036155;28;20387;-79
2021/10/25 13:26:12;;;;;;;2.80;1.80;;;;;;;;;;5036303;28;20574;-80
2021/10/25 13:28:40;;;;;;;8.27;2.53;;;;;;;;;;5036028;28;20909;-78
2021/10/25 13:31:07;;;;;;;6.50;1.90;;;;;;;;;;5035568;28;20508;-77
2021/10/25 13:33:37;;;;;;;3.60;1.83;;;;;;;;;;5035816;28;20555;-79
2021/10/25 13:36:04;;;;;;;2.20;2.00;;;;;;;;;;5036026;28;20412;-80
2021/10/25 13:38:30;;;;;;;5.07;1.73;;;;;;;;;;5036077;28;20405;-78
2021/10/25 13:40:56;;;;;;;6.80;2.40;;;;;;;;;;5035466;28;20520;-79
2021/10/25 13:43:22;;;;;;;4.40;2.37;;;;;;;;;;5035641;28;20433;-77
2021/10/25 13:45:48;;;;;;;3.30;2.40;;;;;;;;;;5035812;28;20419;-76
2021/10/25 13:48:15;;;;;;;5.07;2.40;;;;;;;;;;5035689;28;20496;-80
2021/10/25 13:50:41;;;;;;;3.60;2.00;;;;;;;;;;5035748;28;20421;-80
2021/10/25 13:53:09;;;;;;;1.70;1.60;;;;;;;;;;5035114;28;20471;-77
2021/10/25 13:55:35;;;;;;;5.30;2.23;;;;;;;;;;5035681;28;20781;-80
2021/10/25 13:58:01;;;;;;;4.27;1.83;;;;;;;;;;5034155;28;20845;-76
2021/10/25 14:00:27;;;;;;;3.80;1.60;;;;;;;;;;5035637;28;20504;-76
2021/10/25 14:02:56;;;;;;;4.90;2.03;;;;;;;;;;5035063;28;20805;-77
2021/10/25 14:05:22;;;;;;;7.23;2.10;;;;;;;;;;5035332;28;20416;-77
2021/10/25 14:07:49;;;;;;;3.57;2.23;;;;;;;;;;5035079;28;20448;-78
2021/10/25 14:10:23;;;;;;;5.07;2.13;;;;;;;;;;5035148;28;20500;-79
2021/10/25 14:12:49;;;;;;;9.10;3.27;;;;;;;;;;5034801;28;20993;-76
2021/10/25 14:17:43;;;;;;;3.53;1.60;;;;;;;;;;5034979;28;21056;-80
2021/10/25 14:20:09;;;;;;;5.47;2.00;;;;;;;;;;5033934;28;20449;-79
2021/10/25 14:22:35;;;;;;;2.00;1.40;;;;;;;;;;5034856;28;20406;-81
2021/10/25 14:25:02;;;;;;;3.43;1.70;;;;;;;;;;5034850;28;20783;-76
2021/10/25 14:27:28;;;;;;;5.30;2.17;;;;;;;;;;5017494;28;20413;-78
2021/10/25 14:29:54;;;;;;;3.17;2.00;;;;;;;;;;5034963;28;20409;-81
2021/10/25 14:32:20;;;;;;;7.43;2.20;;;;;;;;;;5034412;28;20469;-79
2021/10/25 14:34:46;;;;;;;6.20;2.10;;;;;;;;;;5034785;28;20816;-80
2021/10/25 14:37:13;;;;;;;4.67;2.20;;;;;;;;;;5034953;28;20387;-77
2021/10/25 14:39:44;;;;;;;5.17;2.50;;;;;;;;;;5033484;28;20388;-79
2021/10/25 14:44:50;;;;;;;6.60;2.47;;;;;;;;;;5034865;28;20416;-79
2021/10/25 14:57:36;;;;;;;4.20;2.33;;;;;;;;;;5034582;28;20444;-78
2021/10/25 15:00:02;;;;;;;3.90;2.50;;;;;;;;;;5034426;28;20387;-78
2021/10/25 15:02:28;;;;;;;6.33;2.50;;;;;;;;;;5032898;28;20787;-79
2021/10/25 15:04:55;;;;;;;5.27;2.77;;;;;;;;;;5034419;28;20420;-80
2021/10/25 15:07:22;;;;;;;9.37;3.07;;;;;;;;;;5034357;28;20391;-78
2021/10/25 15:09:50;;;;;;;8.97;2.73;;;;;;;;;;5032705;28;20419;-77
2021/10/25 15:12:16;;;;;;;6.23;2.60;;;;;;;;;;5037588;28;20950;-78
2021/10/25 15:14:43;;;;;;;4.77;3.20;;;;;;;;;;5043517;28;20432;-78
2021/10/25 15:17:10;;;;;;;7.53;2.87;;;;;;;;;;5050532;28;20421;-79
2021/10/25 15:19:36;;;;;;;7.13;2.60;;;;;;;;;;5049343;28;20409;-76
2021/10/25 15:22:10;;;;;;;11.90;3.27;;;;;;;;;;5042183;28;20445;-78
2021/10/25 15:24:39;;;;;;;4.63;2.50;;;;;;;;;;5044162;28;20433;-77
2021/10/25 15:27:11;;;;;;;6.07;2.40;;;;;;;;;;5042694;28;20771;-79
2021/10/25 15:29:38;;;;;;;9.30;2.47;;;;;;;;;;5046921;28;20418;-78
2021/10/25 15:32:05;;;;;;;5.37;2.40;;;;;;;;;;5042529;28;20459;-78
2021/10/25 15:34:31;;;;;;;5.30;2.23;;;;;;;;;;5044381;28;21006;-79
2021/10/25 15:36:57;;;;;;;6.63;2.70;;;;;;;;;;5043785;28;20431;-78
2021/10/25 15:39:23;;;;;;;5.33;3.03;;;;;;;;;;5049498;28;20912;-78
2021/10/25 15:41:49;;;;;;;4.20;2.50;;;;;;;;;;5050865;28;20533;-80
2021/10/25 15:44:16;;;;;;;4.30;2.80;;;;;;;;;;5037166;28;20499;-80
2021/10/25 15:46:42;;;;;;;5.57;2.73;;;;;;;;;;5048297;28;20432;-79
2021/10/25 15:49:08;;;;;;;6.20;2.93;;;;;;;;;;5046814;28;20416;-76
2021/10/25 15:51:36;;;;;;;4.30;2.83;;;;;;;;;;5044801;28;20433;-78
2021/10/25 15:54:05;;;;;;;8.43;2.90;;;;;;;;;;5046886;28;20471;-79
2021/10/25 15:56:32;;;;;;;6.10;2.70;;;;;;;;;;5055824;28;20421;-78
2021/10/25 15:58:58;;;;;;;5.57;3.13;;;;;;;;;;5048095;28;20783;-80
2021/10/25 16:01:25;;;;;;;6.67;3.10;;;;;;;;;;5036101;28;20429;-78
2021/10/25 16:03:51;;;;;;;7.50;3.10;;;;;;;;;;5041788;28;20735;-81
2021/10/25 16:06:17;;;;;;;5.20;3.23;;;;;;;;;;5048123;28;20427;-79
2021/10/25 16:08:43;;;;;;;5.60;3.00;;;;;;;;;;5043267;28;20809;-78
2021/10/25 16:11:10;;;;;;;7.33;3.00;;;;;;;;;;5039177;28;20437;-78
2021/10/25 16:13:36;;;;;;;8.93;2.80;;;;;;;;;;5026058;28;20968;-77
2021/10/25 16:16:02;;;;;;;8.80;3.40;;;;;;;;;;5051474;28;20946;-78
2021/10/25 16:18:28;;;;;;;25.97;17.47;;;;;;;;;;5042051;28;20804;-79
2021/10/25 16:20:54;;;;;;;21.33;14.53;;;;;;;;;;5045727;28;20517;-78
2021/10/25 16:23:20;;;;;;;13.23;10.13;;;;;;;;;;5045405;28;20456;-77
2021/10/25 16:25:47;;;;;;;12.17;8.90;;;;;;;;;;5048008;28;20460;-79
2021/10/25 16:28:14;;;;;;;9.93;6.70;;;;;;;;;;5046047;28;20987;-78
2021/10/25 16:30:40;;;;;;;13.87;6.80;;;;;;;;;;5045783;28;20538;-78
2021/10/25 16:33:07;;;;;;;7.40;4.77;;;;;;;;;;5053636;28;20475;-77
2021/10/25 16:35:34;;;;;;;9.20;5.20;;;;;;;;;;5052315;28;20589;-78